sensor_id;sensor_type;location;lat;lon;timestamp;P1;durP1;ratioP1;P2;durP2;ratioP2
71963;SDS011;59834;52.124;5.422;2023-06-14T00:00:41;3.22;;;1.05;;
71963;SDS011;59834;52.124;5.422;2023-06-14T00:03:09;3.83;;;1.35;;
71963;SDS011;59834;52.124;5.422;2023-06-14T00:05:38;4.73;;;1.00;;
71963;SDS011;59834;52.124;5.422;2023-06-14T00:08:09;5.03;;;1.33;;
71963;SDS011;59834;52.124;5.422;2023-06-14T00:10:37;2.28;;;0.98;;
71963;SDS011;59834;52.124;5.422;2023-06-14T00:13:05;6.30;;;1.50;;
71963;SDS011;59834;52.124;5.422;2023-06-14T00:15:33;3.55;;;1.00;;
71963;SDS011;59834;52.124;5.422;2023-06-14T00:18:00;5.53;;;0.93;;
71963;SDS011;59834;52.124;5.422;2023-06-14T00:20:28;4.13;;;1.52;;
71963;SDS011;59834;52.124;5.422;2023-06-14T00:22:57;3.83;;;1.05;;
71963;SDS011;59834;52.124;5.422;2023-06-14T00:25:24;4.30;;;1.20;;
71963;SDS011;59834;52.124;5.422;2023-06-14T00:27:56;9.18;;;1.20;;
71963;SDS011;59834;52.124;5.422;2023-06-14T00:30:23;5.07;;;1.10;;
71963;SDS011;59834;52.124;5.422;2023-06-14T00:32:51;2.10;;;1.05;;
71963;SDS011;59834;52.124;5.422;2023-06-14T00:35:24;2.97;;;1.10;;
71963;SDS011;59834;52.124;5.422;2023-06-14T00:37:51;6.10;;;1.23;;
71963;SDS011;59834;52.124;5.422;2023-06-14T00:40:18;3.08;;;1.25;;
71963;SDS011;59834;52.124;5.422;2023-06-14T00:42:45;8.30;;;1.27;;
71963;SDS011;59834;52.124;5.422;2023-06-14T00:45:12;1.95;;;0.90;;
71963;SDS011;59834;52.124;5.422;2023-06-14T00:47:38;2.88;;;0.82;;
71963;SDS011;59834;52.124;5.422;2023-06-14T00:50:08;1.98;;;0.90;;
71963;SDS011;59834;52.124;5.422;2023-06-14T00:52:35;2.75;;;0.90;;
71963;SDS011;59834;52.124;5.422;2023-06-14T00:55:02;2.97;;;1.03;;
71963;SDS011;59834;52.124;5.422;2023-06-14T00:57:29;2.22;;;0.98;;
71963;SDS011;59834;52.124;5.422;2023-06-14T00:59:56;3.80;;;1.08;;
71963;SDS011;59834;52.124;5.422;2023-06-14T01:02:23;4.70;;;1.40;;
71963;SDS011;59834;52.124;5.422;2023-06-14T01:04:50;15.27;;;1.30;;
71963;SDS011;59834;52.124;5.422;2023-06-14T01:15:39;3.05;;;1.00;;
71963;SDS011;59834;52.124;5.422;2023-06-14T01:18:07;8.23;;;2.22;;
71963;SDS011;59834;52.124;5.422;2023-06-14T01:20:34;3.17;;;1.00;;
71963;SDS011;59834;52.124;5.422;2023-06-14T01:23:04;2.55;;;1.10;;
71963;SDS011;59834;52.124;5.422;2023-06-14T01:25:31;2.88;;;0.98;;
71963;SDS011;59834;52.124;5.422;2023-06-14T01:28:05;3.92;;;0.93;;
71963;SDS011;59834;52.124;5.422;2023-06-14T01:30:41;6.00;;;1.38;;
71963;SDS011;59834;52.124;5.422;2023-06-14T01:33:12;4.20;;;0.93;;
71963;SDS011;59834;52.124;5.422;2023-06-14T01:35:42;1.83;;;0.95;;
71963;SDS011;59834;52.124;5.422;2023-06-14T01:38:10;3.03;;;1.30;;
71963;SDS011;59834;52.124;5.422;2023-06-14T01:40:38;2.58;;;0.80;;
71963;SDS011;59834;52.124;5.422;2023-06-14T01:43:06;8.82;;;0.98;;
71963;SDS011;59834;52.124;5.422;2023-06-14T01:45:33;2.63;;;0.70;;
71963;SDS011;59834;52.124;5.422;2023-06-14T01:48:02;4.95;;;1.00;;
71963;SDS011;59834;52.124;5.422;2023-06-14T01:50:30;6.60;;;1.00;;
71963;SDS011;59834;52.124;5.422;2023-06-14T01:52:57;3.50;;;1.40;;
71963;SDS011;59834;52.124;5.422;2023-06-14T01:55:24;12.32;;;2.72;;
71963;SDS011;59834;52.124;5.422;2023-06-14T01:57:51;4.80;;;1.37;;
71963;SDS011;59834;52.124;5.422;2023-06-14T02:00:19;2.05;;;1.10;;
71963;SDS011;59834;52.124;5.422;2023-06-14T02:02:47;2.45;;;1.05;;
71963;SDS011;59834;52.124;5.422;2023-06-14T02:05:14;8.82;;;0.90;;
71963;SDS011;59834;52.124;5.422;2023-06-14T02:07:41;7.90;;;1.15;;
71963;SDS011;59834;52.124;5.422;2023-06-14T02:10:08;5.17;;;1.00;;
71963;SDS011;59834;52.124;5.422;2023-06-14T02:12:34;5.53;;;1.00;;
71963;SDS011;59834;52.124;5.422;2023-06-14T02:15:01;3.15;;;1.00;;
71963;SDS011;59834;52.124;5.422;2023-06-14T02:17:27;4.03;;;1.20;;
71963;SDS011;59834;52.124;5.422;2023-06-14T02:19:54;6.05;;;0.93;;
71963;SDS011;59834;52.124;5.422;2023-06-14T02:22:23;6.90;;;2.07;;
71963;SDS011;59834;52.124;5.422;2023-06-14T02:24:50;3.45;;;1.00;;
71963;SDS011;59834;52.124;5.422;2023-06-14T02:27:27;11.40;;;1.20;;
71963;SDS011;59834;52.124;5.422;2023-06-14T02:29:53;9.02;;;1.02;;
71963;SDS011;59834;52.124;5.422;2023-06-14T02:32:20;4.82;;;0.90;;
71963;SDS011;59834;52.124;5.422;2023-06-14T02:34:46;6.07;;;0.90;;
71963;SDS011;59834;52.124;5.422;2023-06-14T02:37:16;1.70;;;0.80;;
71963;SDS011;59834;52.124;5.422;2023-06-14T02:39:43;2.80;;;1.08;;
71963;SDS011;59834;52.124;5.422;2023-06-14T02:42:09;8.52;;;1.05;;
71963;SDS011;59834;52.124;5.422;2023-06-14T02:44:36;7.25;;;1.40;;
71963;SDS011;59834;52.124;5.422;2023-06-14T02:47:03;2.43;;;1.07;;
71963;SDS011;59834;52.124;5.422;2023-06-14T02:49:31;2.90;;;0.90;;
71963;SDS011;59834;52.124;5.422;2023-06-14T02:51:57;2.10;;;0.98;;
71963;SDS011;59834;52.124;5.422;2023-06-14T02:54:24;2.45;;;0.73;;
71963;SDS011;59834;52.124;5.422;2023-06-14T02:56:51;4.22;;;1.33;;
71963;SDS011;59834;52.124;5.422;2023-06-14T02:59:17;5.73;;;1.20;;
71963;SDS011;59834;52.124;5.422;2023-06-14T03:01:45;5.90;;;1.08;;
71963;SDS011;59834;52.124;5.422;2023-06-14T03:04:12;6.43;;;1.25;;
71963;SDS011;59834;52.124;5.422;2023-06-14T03:06:38;1.50;;;0.68;;
71963;SDS011;59834;52.124;5.422;2023-06-14T03:09:06;3.03;;;1.27;;
71963;SDS011;59834;52.124;5.422;2023-06-14T03:11:35;2.87;;;1.20;;
71963;SDS011;59834;52.124;5.422;2023-06-14T03:14:02;6.32;;;1.17;;
71963;SDS011;59834;52.124;5.422;2023-06-14T03:16:33;11.73;;;1.00;;
71963;SDS011;59834;52.124;5.422;2023-06-14T03:19:00;2.10;;;0.70;;
71963;SDS011;59834;52.124;5.422;2023-06-14T03:21:27;5.25;;;0.80;;
71963;SDS011;59834;52.124;5.422;2023-06-14T03:23:54;4.97;;;1.13;;
71963;SDS011;59834;52.124;5.422;2023-06-14T03:26:21;24.23;;;2.22;;
71963;SDS011;59834;52.124;5.422;2023-06-14T03:28:48;5.70;;;0.93;;
71963;SDS011;59834;52.124;5.422;2023-06-14T03:31:16;5.32;;;0.98;;
71963;SDS011;59834;52.124;5.422;2023-06-14T03:33:43;5.63;;;1.23;;
71963;SDS011;59834;52.124;5.422;2023-06-14T03:36:09;7.43;;;0.90;;
71963;SDS011;59834;52.124;5.422;2023-06-14T03:38:36;2.00;;;0.80;;
71963;SDS011;59834;52.124;5.422;2023-06-14T03:41:03;4.22;;;1.40;;
71963;SDS011;59834;52.124;5.422;2023-06-14T03:43:29;2.55;;;1.08;;
71963;SDS011;59834;52.124;5.422;2023-06-14T03:45:56;3.40;;;0.85;;
71963;SDS011;59834;52.124;5.422;2023-06-14T03:48:23;1.90;;;0.67;;
71963;SDS011;59834;52.124;5.422;2023-06-14T03:50:50;5.68;;;1.00;;
71963;SDS011;59834;52.124;5.422;2023-06-14T03:53:16;1.65;;;0.90;;
71963;SDS011;59834;52.124;5.422;2023-06-14T03:55:43;4.88;;;0.70;;
71963;SDS011;59834;52.124;5.422;2023-06-14T03:58:13;6.95;;;0.90;;
71963;SDS011;59834;52.124;5.422;2023-06-14T04:00:39;1.23;;;0.57;;
71963;SDS011;59834;52.124;5.422;2023-06-14T04:03:06;5.78;;;1.00;;
71963;SDS011;59834;52.124;5.422;2023-06-14T04:05:33;3.08;;;0.75;;
71963;SDS011;59834;52.124;5.422;2023-06-14T04:08:00;6.03;;;1.10;;
71963;SDS011;59834;52.124;5.422;2023-06-14T04:10:27;5.13;;;0.80;;
71963;SDS011;59834;52.124;5.422;2023-06-14T04:12:54;6.00;;;1.03;;
71963;SDS011;59834;52.124;5.422;2023-06-14T04:15:20;4.80;;;1.25;;
71963;SDS011;59834;52.124;5.422;2023-06-14T04:17:48;6.63;;;2.05;;
71963;SDS011;59834;52.124;5.422;2023-06-14T04:20:15;2.53;;;1.25;;
71963;SDS011;59834;52.124;5.422;2023-06-14T04:22:43;2.88;;;0.98;;
71963;SDS011;59834;52.124;5.422;2023-06-14T04:25:10;7.03;;;1.47;;
71963;SDS011;59834;52.124;5.422;2023-06-14T04:27:37;7.95;;;1.05;;
71963;SDS011;59834;52.124;5.422;2023-06-14T04:30:04;7.43;;;0.90;;
71963;SDS011;59834;52.124;5.422;2023-06-14T04:32:32;2.95;;;1.13;;
71963;SDS011;59834;52.124;5.422;2023-06-14T04:35:08;3.08;;;1.02;;
71963;SDS011;59834;52.124;5.422;2023-06-14T04:37:35;2.83;;;1.30;;
71963;SDS011;59834;52.124;5.422;2023-06-14T04:40:06;6.13;;;1.35;;
71963;SDS011;59834;52.124;5.422;2023-06-14T04:42:37;9.75;;;1.40;;
71963;SDS011;59834;52.124;5.422;2023-06-14T04:45:04;5.85;;;1.20;;
71963;SDS011;59834;52.124;5.422;2023-06-14T04:47:33;5.82;;;1.50;;
71963;SDS011;59834;52.124;5.422;2023-06-14T04:50:00;2.20;;;1.17;;
71963;SDS011;59834;52.124;5.422;2023-06-14T04:52:28;2.92;;;1.20;;
71963;SDS011;59834;52.124;5.422;2023-06-14T04:54:55;5.05;;;1.52;;
71963;SDS011;59834;52.124;5.422;2023-06-14T04:57:22;5.30;;;1.23;;
71963;SDS011;59834;52.124;5.422;2023-06-14T04:59:51;6.03;;;1.40;;
71963;SDS011;59834;52.124;5.422;2023-06-14T05:02:24;7.10;;;1.40;;
71963;SDS011;59834;52.124;5.422;2023-06-14T05:04:51;7.32;;;1.60;;
71963;SDS011;59834;52.124;5.422;2023-06-14T05:07:18;4.07;;;1.30;;
71963;SDS011;59834;52.124;5.422;2023-06-14T05:09:46;4.93;;;1.40;;
71963;SDS011;59834;52.124;5.422;2023-06-14T05:12:13;2.40;;;1.40;;
71963;SDS011;59834;52.124;5.422;2023-06-14T05:14:39;7.33;;;1.37;;
71963;SDS011;59834;52.124;5.422;2023-06-14T05:17:06;7.43;;;1.70;;
71963;SDS011;59834;52.124;5.422;2023-06-14T05:19:33;7.22;;;1.63;;
71963;SDS011;59834;52.124;5.422;2023-06-14T05:21:59;3.38;;;2.40;;
71963;SDS011;59834;52.124;5.422;2023-06-14T05:24:26;2.80;;;1.50;;
71963;SDS011;59834;52.124;5.422;2023-06-14T05:26:52;7.80;;;1.70;;
71963;SDS011;59834;52.124;5.422;2023-06-14T05:29:19;2.70;;;1.48;;
71963;SDS011;59834;52.124;5.422;2023-06-14T05:31:46;9.50;;;2.20;;
71963;SDS011;59834;52.124;5.422;2023-06-14T05:34:12;2.63;;;1.60;;
71963;SDS011;59834;52.124;5.422;2023-06-14T05:36:39;6.88;;;1.70;;
71963;SDS011;59834;52.124;5.422;2023-06-14T05:39:06;8.47;;;4.87;;
71963;SDS011;59834;52.124;5.422;2023-06-14T05:41:33;2.70;;;1.50;;
71963;SDS011;59834;52.124;5.422;2023-06-14T05:43:59;3.00;;;1.15;;
71963;SDS011;59834;52.124;5.422;2023-06-14T05:46:27;2.85;;;1.40;;
71963;SDS011;59834;52.124;5.422;2023-06-14T05:48:54;5.18;;;2.08;;
71963;SDS011;59834;52.124;5.422;2023-06-14T05:51:22;5.87;;;2.03;;
71963;SDS011;59834;52.124;5.422;2023-06-14T05:53:51;11.15;;;2.15;;
71963;SDS011;59834;52.124;5.422;2023-06-14T05:56:18;4.05;;;1.58;;
71963;SDS011;59834;52.124;5.422;2023-06-14T05:58:45;4.10;;;1.70;;
71963;SDS011;59834;52.124;5.422;2023-06-14T06:01:12;5.78;;;1.80;;
71963;SDS011;59834;52.124;5.422;2023-06-14T06:03:40;3.00;;;1.70;;
71963;SDS011;59834;52.124;5.422;2023-06-14T06:06:07;5.28;;;2.00;;
71963;SDS011;59834;52.124;5.422;2023-06-14T06:08:34;4.13;;;1.90;;
71963;SDS011;59834;52.124;5.422;2023-06-14T06:11:01;5.13;;;1.70;;
71963;SDS011;59834;52.124;5.422;2023-06-14T06:13:28;3.92;;;1.50;;
71963;SDS011;59834;52.124;5.422;2023-06-14T06:15:55;6.10;;;1.87;;
71963;SDS011;59834;52.124;5.422;2023-06-14T06:18:22;2.88;;;1.90;;
71963;SDS011;59834;52.124;5.422;2023-06-14T06:20:49;7.00;;;2.08;;
71963;SDS011;59834;52.124;5.422;2023-06-14T06:23:16;4.80;;;2.40;;
71963;SDS011;59834;52.124;5.422;2023-06-14T06:25:43;5.85;;;1.73;;
71963;SDS011;59834;52.124;5.422;2023-06-14T06:28:10;11.93;;;1.97;;
71963;SDS011;59834;52.124;5.422;2023-06-14T06:30:37;6.68;;;2.53;;
71963;SDS011;59834;52.124;5.422;2023-06-14T06:33:05;13.07;;;2.70;;
71963;SDS011;59834;52.124;5.422;2023-06-14T06:35:32;4.05;;;1.98;;
71963;SDS011;59834;52.124;5.422;2023-06-14T06:37:59;5.65;;;1.83;;
71963;SDS011;59834;52.124;5.422;2023-06-14T06:40:27;5.53;;;2.80;;
71963;SDS011;59834;52.124;5.422;2023-06-14T06:42:54;3.65;;;2.00;;
71963;SDS011;59834;52.124;5.422;2023-06-14T06:45:21;3.88;;;1.83;;
71963;SDS011;59834;52.124;5.422;2023-06-14T06:47:51;8.25;;;2.05;;
71963;SDS011;59834;52.124;5.422;2023-06-14T06:50:18;7.68;;;1.95;;
71963;SDS011;59834;52.124;5.422;2023-06-14T06:52:46;5.27;;;1.70;;
71963;SDS011;59834;52.124;5.422;2023-06-14T06:55:13;3.95;;;1.63;;
71963;SDS011;59834;52.124;5.422;2023-06-14T06:57:41;3.60;;;1.67;;
71963;SDS011;59834;52.124;5.422;2023-06-14T07:00:08;3.53;;;2.00;;
71963;SDS011;59834;52.124;5.422;2023-06-14T07:02:36;5.15;;;2.38;;
71963;SDS011;59834;52.124;5.422;2023-06-14T07:05:03;4.87;;;1.77;;
71963;SDS011;59834;52.124;5.422;2023-06-14T07:07:30;4.13;;;2.10;;
71963;SDS011;59834;52.124;5.422;2023-06-14T07:09:57;3.55;;;1.70;;
71963;SDS011;59834;52.124;5.422;2023-06-14T07:12:25;4.30;;;2.17;;
71963;SDS011;59834;52.124;5.422;2023-06-14T07:14:52;5.85;;;2.00;;
71963;SDS011;59834;52.124;5.422;2023-06-14T07:17:19;5.57;;;1.87;;
71963;SDS011;59834;52.124;5.422;2023-06-14T07:19:45;3.10;;;1.80;;
71963;SDS011;59834;52.124;5.422;2023-06-14T07:22:12;5.38;;;1.45;;
71963;SDS011;59834;52.124;5.422;2023-06-14T07:24:39;5.85;;;1.67;;
71963;SDS011;59834;52.124;5.422;2023-06-14T07:27:07;2.30;;;1.45;;
71963;SDS011;59834;52.124;5.422;2023-06-14T07:29:34;5.80;;;1.73;;
71963;SDS011;59834;52.124;5.422;2023-06-14T07:32:01;2.83;;;1.55;;
71963;SDS011;59834;52.124;5.422;2023-06-14T07:34:28;2.85;;;1.73;;
71963;SDS011;59834;52.124;5.422;2023-06-14T07:36:54;6.95;;;2.67;;
71963;SDS011;59834;52.124;5.422;2023-06-14T07:39:21;5.55;;;2.05;;
71963;SDS011;59834;52.124;5.422;2023-06-14T07:41:48;4.30;;;1.10;;
71963;SDS011;59834;52.124;5.422;2023-06-14T07:44:15;4.88;;;1.40;;
71963;SDS011;59834;52.124;5.422;2023-06-14T07:46:42;7.70;;;1.23;;
71963;SDS011;59834;52.124;5.422;2023-06-14T07:49:09;4.78;;;1.13;;
71963;SDS011;59834;52.124;5.422;2023-06-14T07:51:36;2.10;;;1.05;;
71963;SDS011;59834;52.124;5.422;2023-06-14T07:54:04;11.97;;;1.40;;
71963;SDS011;59834;52.124;5.422;2023-06-14T07:56:31;1.40;;;0.70;;
71963;SDS011;59834;52.124;5.422;2023-06-14T07:58:57;2.25;;;1.02;;
71963;SDS011;59834;52.124;5.422;2023-06-14T08:01:24;3.72;;;1.00;;
71963;SDS011;59834;52.124;5.422;2023-06-14T08:03:52;1.90;;;0.90;;
71963;SDS011;59834;52.124;5.422;2023-06-14T08:06:19;4.87;;;0.93;;
71963;SDS011;59834;52.124;5.422;2023-06-14T08:08:45;3.03;;;1.00;;
71963;SDS011;59834;52.124;5.422;2023-06-14T08:11:12;4.18;;;0.80;;
71963;SDS011;59834;52.124;5.422;2023-06-14T08:13:39;1.55;;;0.80;;
71963;SDS011;59834;52.124;5.422;2023-06-14T08:16:05;1.50;;;0.60;;
71963;SDS011;59834;52.124;5.422;2023-06-14T08:18:32;2.73;;;0.83;;
71963;SDS011;59834;52.124;5.422;2023-06-14T08:20:59;3.45;;;0.70;;
71963;SDS011;59834;52.124;5.422;2023-06-14T08:23:25;4.22;;;0.60;;
71963;SDS011;59834;52.124;5.422;2023-06-14T08:25:53;1.88;;;0.65;;
71963;SDS011;59834;52.124;5.422;2023-06-14T08:28:20;1.13;;;0.73;;
71963;SDS011;59834;52.124;5.422;2023-06-14T08:30:47;4.33;;;0.80;;
71963;SDS011;59834;52.124;5.422;2023-06-14T08:33:14;1.42;;;0.60;;
71963;SDS011;59834;52.124;5.422;2023-06-14T08:35:43;2.30;;;0.60;;
71963;SDS011;59834;52.124;5.422;2023-06-14T08:38:11;2.67;;;0.85;;
71963;SDS011;59834;52.124;5.422;2023-06-14T08:40:41;1.20;;;0.82;;
71963;SDS011;59834;52.124;5.422;2023-06-14T08:43:08;2.10;;;0.60;;
71963;SDS011;59834;52.124;5.422;2023-06-14T08:45:35;3.33;;;0.55;;
71963;SDS011;59834;52.124;5.422;2023-06-14T08:48:03;5.38;;;0.73;;
71963;SDS011;59834;52.124;5.422;2023-06-14T08:50:31;2.50;;;0.60;;
71963;SDS011;59834;52.124;5.422;2023-06-14T08:53:00;8.32;;;1.02;;
71963;SDS011;59834;52.124;5.422;2023-06-14T08:55:30;3.47;;;0.70;;
71963;SDS011;59834;52.124;5.422;2023-06-14T08:58:02;5.45;;;0.70;;
71963;SDS011;59834;52.124;5.422;2023-06-14T09:00:30;2.38;;;0.50;;
71963;SDS011;59834;52.124;5.422;2023-06-14T09:03:01;1.13;;;0.43;;
71963;SDS011;59834;52.124;5.422;2023-06-14T09:05:29;1.38;;;0.50;;
71963;SDS011;59834;52.124;5.422;2023-06-14T09:07:56;1.90;;;0.70;;
71963;SDS011;59834;52.124;5.422;2023-06-14T09:10:31;1.52;;;0.57;;
71963;SDS011;59834;52.124;5.422;2023-06-14T09:13:03;3.47;;;0.70;;
71963;SDS011;59834;52.124;5.422;2023-06-14T09:15:30;2.40;;;0.50;;
71963;SDS011;59834;52.124;5.422;2023-06-14T09:17:58;2.92;;;0.60;;
71963;SDS011;59834;52.124;5.422;2023-06-14T09:20:28;3.27;;;0.50;;
71963;SDS011;59834;52.124;5.422;2023-06-14T09:22:56;1.80;;;1.08;;
71963;SDS011;59834;52.124;5.422;2023-06-14T09:25:25;2.58;;;0.35;;
71963;SDS011;59834;52.124;5.422;2023-06-14T09:27:56;2.58;;;1.30;;
71963;SDS011;59834;52.124;5.422;2023-06-14T09:30:23;1.50;;;0.60;;
71963;SDS011;59834;52.124;5.422;2023-06-14T09:32:49;2.30;;;0.70;;
71963;SDS011;59834;52.124;5.422;2023-06-14T09:35:17;1.90;;;0.55;;
71963;SDS011;59834;52.124;5.422;2023-06-14T09:37:44;2.33;;;0.60;;
71963;SDS011;59834;52.124;5.422;2023-06-14T09:40:11;1.77;;;0.52;;
71963;SDS011;59834;52.124;5.422;2023-06-14T09:42:37;1.20;;;0.50;;
71963;SDS011;59834;52.124;5.422;2023-06-14T09:45:04;1.80;;;0.40;;
71963;SDS011;59834;52.124;5.422;2023-06-14T09:47:31;3.30;;;0.57;;
71963;SDS011;59834;52.124;5.422;2023-06-14T09:49:58;2.13;;;0.47;;
71963;SDS011;59834;52.124;5.422;2023-06-14T09:52:26;1.65;;;0.60;;
71963;SDS011;59834;52.124;5.422;2023-06-14T09:54:54;4.32;;;0.65;;
71963;SDS011;59834;52.124;5.422;2023-06-14T09:57:22;1.17;;;0.67;;
71963;SDS011;59834;52.124;5.422;2023-06-14T09:59:52;2.08;;;0.70;;
71963;SDS011;59834;52.124;5.422;2023-06-14T10:02:27;1.55;;;0.60;;
71963;SDS011;59834;52.124;5.422;2023-06-14T10:05:01;1.98;;;0.57;;
71963;SDS011;59834;52.124;5.422;2023-06-14T10:07:35;1.92;;;0.80;;
71963;SDS011;59834;52.124;5.422;2023-06-14T10:10:06;2.40;;;0.60;;
71963;SDS011;59834;52.124;5.422;2023-06-14T10:12:33;1.25;;;0.65;;
71963;SDS011;59834;52.124;5.422;2023-06-14T10:15:00;2.92;;;0.70;;
71963;SDS011;59834;52.124;5.422;2023-06-14T10:23:16;2.80;;;0.60;;
71963;SDS011;59834;52.124;5.422;2023-06-14T10:25:45;3.25;;;0.77;;
71963;SDS011;59834;52.124;5.422;2023-06-14T10:28:20;6.40;;;0.50;;
71963;SDS011;59834;52.124;5.422;2023-06-14T10:31:09;2.03;;;0.60;;
71963;SDS011;59834;52.124;5.422;2023-06-14T10:33:55;6.70;;;0.47;;
71963;SDS011;59834;52.124;5.422;2023-06-14T10:41:34;1.08;;;0.50;;
71963;SDS011;59834;52.124;5.422;2023-06-14T10:46:58;2.45;;;0.90;;
71963;SDS011;59834;52.124;5.422;2023-06-14T10:49:42;1.43;;;0.83;;
71963;SDS011;59834;52.124;5.422;2023-06-14T10:52:12;5.55;;;0.60;;
71963;SDS011;59834;52.124;5.422;2023-06-14T10:55:04;1.73;;;0.55;;
71963;SDS011;59834;52.124;5.422;2023-06-14T10:57:42;4.95;;;0.65;;
71963;SDS011;59834;52.124;5.422;2023-06-14T11:00:20;1.13;;;0.50;;
71963;SDS011;59834;52.124;5.422;2023-06-14T11:06:08;2.42;;;0.57;;
71963;SDS011;59834;52.124;5.422;2023-06-14T11:11:24;4.30;;;0.63;;
71963;SDS011;59834;52.124;5.422;2023-06-14T11:13:59;4.78;;;0.60;;
71963;SDS011;59834;52.124;5.422;2023-06-14T11:16:27;1.23;;;0.50;;
71963;SDS011;59834;52.124;5.422;2023-06-14T11:18:54;5.32;;;0.77;;
71963;SDS011;59834;52.124;5.422;2023-06-14T11:21:21;0.93;;;0.35;;
71963;SDS011;59834;52.124;5.422;2023-06-14T11:23:51;1.15;;;0.60;;
71963;SDS011;59834;52.124;5.422;2023-06-14T11:26:29;4.43;;;0.88;;
71963;SDS011;59834;52.124;5.422;2023-06-14T11:29:00;1.30;;;0.40;;
71963;SDS011;59834;52.124;5.422;2023-06-14T11:31:27;1.20;;;0.43;;
71963;SDS011;59834;52.124;5.422;2023-06-14T11:33:58;1.40;;;0.70;;
71963;SDS011;59834;52.124;5.422;2023-06-14T11:36:26;2.95;;;0.50;;
71963;SDS011;59834;52.124;5.422;2023-06-14T11:39:00;2.50;;;0.70;;
71963;SDS011;59834;52.124;5.422;2023-06-14T11:41:37;3.47;;;0.60;;
71963;SDS011;59834;52.124;5.422;2023-06-14T11:44:10;1.52;;;0.60;;
71963;SDS011;59834;52.124;5.422;2023-06-14T11:46:38;2.75;;;0.60;;
71963;SDS011;59834;52.124;5.422;2023-06-14T11:49:06;6.43;;;0.80;;
71963;SDS011;59834;52.124;5.422;2023-06-14T11:51:34;2.65;;;0.75;;
71963;SDS011;59834;52.124;5.422;2023-06-14T11:54:04;4.10;;;0.50;;
71963;SDS011;59834;52.124;5.422;2023-06-14T11:56:32;2.05;;;0.70;;
71963;SDS011;59834;52.124;5.422;2023-06-14T11:58:59;3.10;;;0.60;;
71963;SDS011;59834;52.124;5.422;2023-06-14T12:01:26;1.35;;;1.20;;
71963;SDS011;59834;52.124;5.422;2023-06-14T12:03:53;1.88;;;0.55;;
71963;SDS011;59834;52.124;5.422;2023-06-14T12:06:27;2.47;;;0.80;;
71963;SDS011;59834;52.124;5.422;2023-06-14T12:08:58;2.97;;;0.57;;
71963;SDS011;59834;52.124;5.422;2023-06-14T12:11:28;1.42;;;0.50;;
71963;SDS011;59834;52.124;5.422;2023-06-14T12:13:59;3.50;;;0.52;;
71963;SDS011;59834;52.124;5.422;2023-06-14T12:16:33;1.73;;;0.68;;
71963;SDS011;59834;52.124;5.422;2023-06-14T12:19:15;1.03;;;0.40;;
71963;SDS011;59834;52.124;5.422;2023-06-14T12:21:45;1.95;;;0.80;;
71963;SDS011;59834;52.124;5.422;2023-06-14T12:24:15;6.75;;;1.30;;
71963;SDS011;59834;52.124;5.422;2023-06-14T12:26:41;3.67;;;0.60;;
71963;SDS011;59834;52.124;5.422;2023-06-14T12:29:08;1.10;;;0.52;;
71963;SDS011;59834;52.124;5.422;2023-06-14T12:31:35;1.53;;;0.60;;
71963;SDS011;59834;52.124;5.422;2023-06-14T12:34:01;3.40;;;0.55;;
71963;SDS011;59834;52.124;5.422;2023-06-14T12:36:29;3.00;;;0.50;;
71963;SDS011;59834;52.124;5.422;2023-06-14T12:38:56;6.68;;;0.68;;
71963;SDS011;59834;52.124;5.422;2023-06-14T12:41:23;1.50;;;0.60;;
71963;SDS011;59834;52.124;5.422;2023-06-14T12:43:50;3.50;;;0.50;;
71963;SDS011;59834;52.124;5.422;2023-06-14T12:46:17;5.25;;;0.73;;
71963;SDS011;59834;52.124;5.422;2023-06-14T12:48:44;3.08;;;0.40;;
71963;SDS011;59834;52.124;5.422;2023-06-14T12:51:10;3.90;;;0.60;;
71963;SDS011;59834;52.124;5.422;2023-06-14T12:53:37;1.05;;;0.45;;
71963;SDS011;59834;52.124;5.422;2023-06-14T12:56:03;1.50;;;0.60;;
71963;SDS011;59834;52.124;5.422;2023-06-14T12:58:30;1.42;;;0.60;;
71963;SDS011;59834;52.124;5.422;2023-06-14T13:00:57;2.47;;;0.45;;
71963;SDS011;59834;52.124;5.422;2023-06-14T13:03:23;2.47;;;0.50;;
71963;SDS011;59834;52.124;5.422;2023-06-14T13:05:50;1.13;;;0.40;;
71963;SDS011;59834;52.124;5.422;2023-06-14T13:08:17;1.50;;;0.67;;
71963;SDS011;59834;52.124;5.422;2023-06-14T13:10:43;2.83;;;0.43;;
71963;SDS011;59834;52.124;5.422;2023-06-14T13:13:10;1.67;;;0.60;;
71963;SDS011;59834;52.124;5.422;2023-06-14T13:15:38;1.50;;;0.65;;
71963;SDS011;59834;52.124;5.422;2023-06-14T13:18:05;3.88;;;0.75;;
71963;SDS011;59834;52.124;5.422;2023-06-14T13:20:32;2.80;;;0.67;;
71963;SDS011;59834;52.124;5.422;2023-06-14T13:22:59;3.55;;;0.60;;
71963;SDS011;59834;52.124;5.422;2023-06-14T13:25:25;2.03;;;0.60;;
71963;SDS011;59834;52.124;5.422;2023-06-14T13:27:52;2.17;;;0.73;;
71963;SDS011;59834;52.124;5.422;2023-06-14T13:30:18;7.03;;;0.70;;
71963;SDS011;59834;52.124;5.422;2023-06-14T13:32:45;7.57;;;0.90;;
71963;SDS011;59834;52.124;5.422;2023-06-14T13:35:15;3.65;;;0.65;;
71963;SDS011;59834;52.124;5.422;2023-06-14T13:37:42;1.40;;;0.70;;
71963;SDS011;59834;52.124;5.422;2023-06-14T13:40:09;4.35;;;0.80;;
71963;SDS011;59834;52.124;5.422;2023-06-14T13:42:36;3.58;;;0.52;;
71963;SDS011;59834;52.124;5.422;2023-06-14T13:45:03;7.17;;;0.70;;
71963;SDS011;59834;52.124;5.422;2023-06-14T13:47:31;1.30;;;0.65;;
71963;SDS011;59834;52.124;5.422;2023-06-14T13:49:58;1.67;;;0.52;;
71963;SDS011;59834;52.124;5.422;2023-06-14T13:52:25;5.00;;;0.60;;
71963;SDS011;59834;52.124;5.422;2023-06-14T13:54:51;1.40;;;0.50;;
71963;SDS011;59834;52.124;5.422;2023-06-14T13:57:18;3.97;;;1.20;;
71963;SDS011;59834;52.124;5.422;2023-06-14T13:59:45;1.25;;;0.60;;
71963;SDS011;59834;52.124;5.422;2023-06-14T14:02:11;1.30;;;0.38;;
71963;SDS011;59834;52.124;5.422;2023-06-14T14:04:39;1.17;;;0.50;;
71963;SDS011;59834;52.124;5.422;2023-06-14T14:07:06;6.68;;;0.77;;
71963;SDS011;59834;52.124;5.422;2023-06-14T14:09:33;1.97;;;0.60;;
71963;SDS011;59834;52.124;5.422;2023-06-14T14:12:01;4.93;;;0.50;;
71963;SDS011;59834;52.124;5.422;2023-06-14T14:14:29;2.17;;;0.50;;
71963;SDS011;59834;52.124;5.422;2023-06-14T14:16:58;1.88;;;0.73;;
71963;SDS011;59834;52.124;5.422;2023-06-14T14:19:24;2.85;;;0.60;;
71963;SDS011;59834;52.124;5.422;2023-06-14T14:21:51;0.90;;;0.57;;
71963;SDS011;59834;52.124;5.422;2023-06-14T14:24:19;2.83;;;0.60;;
71963;SDS011;59834;52.124;5.422;2023-06-14T14:26:46;7.28;;;0.50;;
71963;SDS011;59834;52.124;5.422;2023-06-14T14:29:16;1.80;;;0.40;;
71963;SDS011;59834;52.124;5.422;2023-06-14T14:31:43;3.97;;;0.50;;
71963;SDS011;59834;52.124;5.422;2023-06-14T14:34:10;0.90;;;0.40;;
71963;SDS011;59834;52.124;5.422;2023-06-14T14:36:36;7.93;;;0.50;;
71963;SDS011;59834;52.124;5.422;2023-06-14T14:39:04;2.55;;;0.70;;
71963;SDS011;59834;52.124;5.422;2023-06-14T14:41:31;3.63;;;0.60;;
71963;SDS011;59834;52.124;5.422;2023-06-14T14:43:57;5.07;;;0.60;;
71963;SDS011;59834;52.124;5.422;2023-06-14T14:46:25;1.23;;;0.33;;
71963;SDS011;59834;52.124;5.422;2023-06-14T14:48:52;2.47;;;0.63;;
71963;SDS011;59834;52.124;5.422;2023-06-14T14:51:18;4.85;;;0.77;;
71963;SDS011;59834;52.124;5.422;2023-06-14T14:53:45;6.90;;;0.65;;
71963;SDS011;59834;52.124;5.422;2023-06-14T14:56:11;1.58;;;0.35;;
71963;SDS011;59834;52.124;5.422;2023-06-14T14:58:38;2.53;;;0.40;;
71963;SDS011;59834;52.124;5.422;2023-06-14T15:01:04;2.45;;;0.55;;
71963;SDS011;59834;52.124;5.422;2023-06-14T15:03:32;3.28;;;0.63;;
71963;SDS011;59834;52.124;5.422;2023-06-14T15:06:18;1.77;;;0.35;;
71963;SDS011;59834;52.124;5.422;2023-06-14T15:08:45;1.17;;;0.45;;
71963;SDS011;59834;52.124;5.422;2023-06-14T15:11:12;0.93;;;0.37;;
71963;SDS011;59834;52.124;5.422;2023-06-14T15:13:38;2.08;;;0.50;;
71963;SDS011;59834;52.124;5.422;2023-06-14T15:16:05;1.23;;;0.50;;
71963;SDS011;59834;52.124;5.422;2023-06-14T15:18:32;2.30;;;0.40;;
71963;SDS011;59834;52.124;5.422;2023-06-14T15:20:58;1.63;;;0.50;;